Time;durP1;ratioP1;P1;durP2;ratioP2;P2;SDS_P1;SDS_P2;PMS_P1;PMS_P2;Temp;Humidity;BMP_temperature;BMP_pressure;BME280_temperature;BME280_humidity;BME280_pressure;Samples;Min_cycle;Max_cycle;Signal;HPM_P1;HPM_P2
2022/06/27 00:01:24;;;;;;;4.10;3.80;;;;;;;;;;5032553;28;20190;-86
2022/06/27 00:03:54;;;;;;;4.27;3.87;;;;;;;;;;5031885;28;20289;-86
2022/06/27 00:06:24;;;;;;;3.93;3.63;;;;;;;;;;5032004;28;20202;-86
2022/06/27 00:08:54;;;;;;;4.10;3.77;;;;;;;;;;5032097;28;20206;-86
2022/06/27 00:11:25;;;;;;;4.17;3.77;;;;;;;;;;5031926;28;20248;-86
2022/06/27 00:13:52;;;;;;;4.47;3.87;;;;;;;;;;5031867;28;20202;-86
2022/06/27 00:16:19;;;;;;;3.93;3.63;;;;;;;;;;5031867;28;20273;-86
2022/06/27 00:18:46;;;;;;;3.93;3.63;;;;;;;;;;5031778;28;20206;-86
2022/06/27 00:21:16;;;;;;;3.50;3.20;;;;;;;;;;5032067;28;20666;-86
2022/06/27 00:23:53;;;;;;;3.97;3.67;;;;;;;;;;5030914;28;20668;-86
2022/06/27 00:26:22;;;;;;;3.73;3.37;;;;;;;;;;5031563;28;20191;-86
2022/06/27 00:28:51;;;;;;;4.60;4.17;;;;;;;;;;5031760;28;20206;-86
2022/06/27 00:31:18;;;;;;;4.73;4.27;;;;;;;;;;5031576;28;20226;-86
2022/06/27 00:33:54;;;;;;;3.93;3.63;;;;;;;;;;5031255;28;20198;-86
2022/06/27 00:36:21;;;;;;;3.80;3.50;;;;;;;;;;5031913;28;20667;-86
2022/06/27 00:38:54;;;;;;;4.10;3.50;;;;;;;;;;5031621;28;20195;-86
2022/06/27 00:41:21;;;;;;;3.93;3.63;;;;;;;;;;5031476;28;20190;-86
2022/06/27 00:44:09;;;;;;;6.27;3.90;;;;;;;;;;5031121;28;20214;-86
2022/06/27 00:46:36;;;;;;;3.80;3.50;;;;;;;;;;5031617;28;20241;-86
2022/06/27 00:49:03;;;;;;;4.23;3.90;;;;;;;;;;5031264;28;20217;-86
2022/06/27 00:51:30;;;;;;;4.43;4.03;;;;;;;;;;5031350;28;20227;-86
2022/06/27 00:53:57;;;;;;;5.30;4.80;;;;;;;;;;5031302;28;20564;-86
2022/06/27 00:56:25;;;;;;;4.10;3.80;;;;;;;;;;5031204;28;20668;-86
2022/06/27 00:58:58;;;;;;;4.80;4.20;;;;;;;;;;5031971;28;20195;-86
2022/06/27 01:01:26;;;;;;;4.77;3.60;;;;;;;;;;5034833;28;20198;-86
2022/06/27 01:03:53;;;;;;;3.53;3.23;;;;;;;;;;5034711;28;20678;-86
2022/06/27 01:06:23;;;;;;;4.43;3.30;;;;;;;;;;5034932;28;20276;-86
2022/06/27 01:08:53;;;;;;;3.07;2.83;;;;;;;;;;5034910;28;20194;-86
2022/06/27 01:11:29;;;;;;;3.73;3.30;;;;;;;;;;5034797;28;20227;-86
2022/06/27 01:14:03;;;;;;;4.17;3.57;;;;;;;;;;5034607;28;20710;-85
2022/06/27 01:16:31;;;;;;;3.70;3.40;;;;;;;;;;5034698;28;20205;-86
2022/06/27 01:18:58;;;;;;;3.90;3.50;;;;;;;;;;5034390;28;20211;-86
2022/06/27 01:21:35;;;;;;;4.47;3.73;;;;;;;;;;5034847;28;20675;-86
2022/06/27 01:24:07;;;;;;;4.17;3.80;;;;;;;;;;5034073;28;20234;-86
2022/06/27 01:26:35;;;;;;;3.80;3.37;;;;;;;;;;5034518;28;20266;-86
2022/06/27 01:29:02;;;;;;;3.70;3.40;;;;;;;;;;5033992;28;20202;-86
2022/06/27 01:31:39;;;;;;;4.07;3.67;;;;;;;;;;5034380;28;20607;-85
2022/06/27 01:34:06;;;;;;;4.10;3.80;;;;;;;;;;5034644;28;20617;-86
2022/06/27 01:36:46;;;;;;;4.03;3.60;;;;;;;;;;5034345;28;20205;-86
2022/06/27 01:39:15;;;;;;;4.17;3.80;;;;;;;;;;5034548;28;20206;-86
2022/06/27 01:41:44;;;;;;;4.30;4.00;;;;;;;;;;5034185;28;20210;-85
2022/06/27 01:44:21;;;;;;;5.07;3.53;;;;;;;;;;5033987;28;20740;-86
2022/06/27 01:46:55;;;;;;;3.60;3.40;;;;;;;;;;5033969;28;20206;-86
2022/06/27 01:49:22;;;;;;;3.77;3.57;;;;;;;;;;5033981;28;20191;-86
2022/06/27 01:51:52;;;;;;;3.80;3.50;;;;;;;;;;5033760;28;20265;-86
2022/06/27 01:54:22;;;;;;;3.60;3.30;;;;;;;;;;5033701;28;20217;-86
2022/06/27 01:56:50;;;;;;;4.30;3.87;;;;;;;;;;5034313;28;20202;-86
2022/06/27 01:59:19;;;;;;;5.10;4.47;;;;;;;;;;5034120;28;20197;-85
2022/06/27 02:01:46;;;;;;;3.83;3.53;;;;;;;;;;5034182;28;20209;-86
2022/06/27 02:04:16;;;;;;;4.03;3.73;;;;;;;;;;5033866;28;20201;-85
2022/06/27 02:06:47;;;;;;;3.77;3.47;;;;;;;;;;5034127;28;20202;-86
2022/06/27 02:09:15;;;;;;;3.77;3.43;;;;;;;;;;5033423;28;20206;-85
2022/06/27 02:11:49;;;;;;;3.87;3.57;;;;;;;;;;5032925;28;20231;-85
2022/06/27 02:14:22;;;;;;;4.03;3.73;;;;;;;;;;5033737;28;20194;-85
2022/06/27 02:16:50;;;;;;;4.47;3.77;;;;;;;;;;5033496;28;20291;-85
2022/06/27 02:19:19;;;;;;;3.87;3.20;;;;;;;;;;5033338;28;20209;-86
2022/06/27 02:21:55;;;;;;;3.90;3.57;;;;;;;;;;5033308;28;20196;-86
2022/06/27 02:24:22;;;;;;;4.70;3.13;;;;;;;;;;5033239;28;20240;-85
2022/06/27 02:26:57;;;;;;;3.63;3.33;;;;;;;;;;5033663;28;20285;-86
2022/06/27 02:29:24;;;;;;;3.13;2.93;;;;;;;;;;5033383;28;20669;-85
2022/06/27 02:31:51;;;;;;;3.30;3.00;;;;;;;;;;5032982;28;20229;-85
2022/06/27 02:34:19;;;;;;;5.43;3.10;;;;;;;;;;5033412;28;20192;-86
2022/06/27 02:36:53;;;;;;;6.13;3.00;;;;;;;;;;5033414;28;20613;-86
2022/06/27 02:39:33;;;;;;;3.30;3.10;;;;;;;;;;5032887;28;20205;-85
2022/06/27 02:42:04;;;;;;;3.07;2.80;;;;;;;;;;5033217;28;20324;-85
2022/06/27 02:44:40;;;;;;;4.40;3.00;;;;;;;;;;5033174;28;20645;-85
2022/06/27 02:47:20;;;;;;;3.00;2.80;;;;;;;;;;5032987;28;20285;-85
2022/06/27 02:49:47;;;;;;;3.57;3.27;;;;;;;;;;5032669;28;20246;-85
2022/06/27 02:52:18;;;;;;;3.70;2.60;;;;;;;;;;5032864;28;20704;-85
2022/06/27 02:54:50;;;;;;;3.57;3.07;;;;;;;;;;5032760;28;20225;-86
2022/06/27 02:57:35;;;;;;;3.47;3.20;;;;;;;;;;5033117;28;20255;-85
2022/06/27 03:00:08;;;;;;;3.17;2.80;;;;;;;;;;5032199;28;20186;-85
2022/06/27 03:02:44;;;;;;;3.00;2.70;;;;;;;;;;5032670;28;20205;-85
2022/06/27 03:05:14;;;;;;;5.07;2.90;;;;;;;;;;5032416;28;20204;-85
2022/06/27 03:07:53;;;;;;;3.03;2.73;;;;;;;;;;5032559;28;20209;-85
2022/06/27 03:10:32;;;;;;;3.40;3.07;;;;;;;;;;5032769;28;20202;-85
2022/06/27 03:13:01;;;;;;;5.60;3.20;;;;;;;;;;5032532;28;20269;-86
2022/06/27 03:15:46;;;;;;;4.13;3.30;;;;;;;;;;5032297;28;20205;-85
2022/06/27 03:18:16;;;;;;;4.20;3.00;;;;;;;;;;5032258;28;20205;-85
2022/06/27 03:20:46;;;;;;;4.90;3.03;;;;;;;;;;5032694;28;20200;-85
2022/06/27 03:23:15;;;;;;;3.37;3.07;;;;;;;;;;5031348;28;20205;-85
2022/06/27 03:25:45;;;;;;;3.80;3.50;;;;;;;;;;5031921;28;20234;-85
2022/06/27 03:28:17;;;;;;;3.73;3.37;;;;;;;;;;5032463;28;20205;-85
2022/06/27 03:30:47;;;;;;;3.63;3.33;;;;;;;;;;5032152;28;20209;-85
2022/06/27 03:33:15;;;;;;;4.17;3.30;;;;;;;;;;5032015;28;20663;-85
2022/06/27 03:35:42;;;;;;;3.10;2.90;;;;;;;;;;5032065;28;20576;-85
2022/06/27 03:38:15;;;;;;;2.90;2.70;;;;;;;;;;5032309;28;20205;-85
2022/06/27 03:40:45;;;;;;;3.30;2.83;;;;;;;;;;5032200;28;20208;-85
2022/06/27 03:43:12;;;;;;;3.17;2.87;;;;;;;;;;5031476;28;20667;-85
2022/06/27 03:45:43;;;;;;;3.37;3.07;;;;;;;;;;5031787;28;20202;-86
2022/06/27 03:49:59;;;;;;;4.20;3.00;;;;;;;;;;5031811;28;20204;-85
2022/06/27 03:51:00;;;;;;;3.60;3.30;;;;;;;;;;5031769;28;20783;-85
2022/06/27 03:53:27;;;;;;;3.53;3.30;;;;;;;;;;5031822;28;20288;-85
2022/06/27 03:55:57;;;;;;;3.43;3.10;;;;;;;;;;5031793;28;20252;-85
2022/06/27 03:58:24;;;;;;;4.20;3.27;;;;;;;;;;5031895;28;20197;-85
2022/06/27 04:00:59;;;;;;;3.83;3.30;;;;;;;;;;5031548;28;20197;-85
2022/06/27 04:03:26;;;;;;;5.13;3.17;;;;;;;;;;5031612;28;20209;-85
2022/06/27 04:05:56;;;;;;;3.63;3.37;;;;;;;;;;5031495;28;20209;-85
2022/06/27 04:08:23;;;;;;;3.43;3.23;;;;;;;;;;5031568;28;20254;-84
2022/06/27 04:10:50;;;;;;;3.07;2.83;;;;;;;;;;5031544;28;20258;-85
2022/06/27 04:13:17;;;;;;;3.20;3.00;;;;;;;;;;5031576;28;20262;-85
2022/06/27 04:15:51;;;;;;;5.67;3.47;;;;;;;;;;5031648;28;20206;-85
2022/06/27 04:18:22;;;;;;;3.00;2.80;;;;;;;;;;5031984;28;20206;-84
2022/06/27 04:20:49;;;;;;;3.87;2.80;;;;;;;;;;5031583;28;20674;-85
2022/06/27 04:23:25;;;;;;;3.20;2.90;;;;;;;;;;5031422;28;20701;-85
2022/06/27 04:25:53;;;;;;;3.00;2.80;;;;;;;;;;5031515;28;20237;-85
2022/06/27 04:28:20;;;;;;;3.43;3.13;;;;;;;;;;5031721;28;20198;-85
2022/06/27 04:30:56;;;;;;;5.77;3.17;;;;;;;;;;5031899;28;20205;-85
2022/06/27 04:33:24;;;;;;;4.30;3.23;;;;;;;;;;5032326;28;20205;-84
2022/06/27 04:35:52;;;;;;;3.27;2.97;;;;;;;;;;5035589;28;20592;-85
2022/06/27 04:38:29;;;;;;;3.47;3.17;;;;;;;;;;5035528;28;20202;-85
2022/06/27 04:40:58;;;;;;;2.97;2.77;;;;;;;;;;5035293;28;20197;-85
2022/06/27 04:43:26;;;;;;;3.23;3.00;;;;;;;;;;5035015;28;20218;-85
2022/06/27 04:45:54;;;;;;;3.90;3.03;;;;;;;;;;5035229;28;20206;-86
2022/06/27 04:48:29;;;;;;;3.67;3.20;;;;;;;;;;5035034;28;20286;-86
2022/06/27 04:50:57;;;;;;;3.90;3.60;;;;;;;;;;5035459;28;20224;-85
2022/06/27 04:53:27;;;;;;;4.13;3.33;;;;;;;;;;5034757;28;20194;-85
2022/06/27 04:55:57;;;;;;;5.73;3.57;;;;;;;;;;5035304;28;20775;-85
2022/06/27 04:58:24;;;;;;;3.20;3.00;;;;;;;;;;5035037;28;20199;-85
2022/06/27 05:00:57;;;;;;;5.23;3.50;;;;;;;;;;5035162;28;20202;-85
2022/06/27 05:03:25;;;;;;;5.03;3.27;;;;;;;;;;5034882;28;20203;-85
2022/06/27 05:05:53;;;;;;;3.77;3.40;;;;;;;;;;5034834;28;20241;-86
2022/06/27 05:08:26;;;;;;;3.47;3.03;;;;;;;;;;5034633;28;20556;-85
2022/06/27 05:10:56;;;;;;;2.83;2.63;;;;;;;;;;5034900;28;20209;-85
2022/06/27 05:13:29;;;;;;;4.17;3.23;;;;;;;;;;5034973;28;20233;-86
2022/06/27 05:15:56;;;;;;;3.53;3.23;;;;;;;;;;5034373;28;20706;-86
2022/06/27 05:18:26;;;;;;;3.47;3.13;;;;;;;;;;5034440;28;20198;-85
2022/06/27 05:20:55;;;;;;;4.80;3.50;;;;;;;;;;5034776;28;20198;-86
2022/06/27 05:23:32;;;;;;;3.67;3.37;;;;;;;;;;5034643;28;20766;-86
2022/06/27 05:26:08;;;;;;;8.77;3.83;;;;;;;;;;5034277;28;20226;-86
2022/06/27 05:28:38;;;;;;;4.77;3.20;;;;;;;;;;5034267;28;20206;-86
2022/06/27 05:31:05;;;;;;;4.27;3.03;;;;;;;;;;5034684;28;20199;-86
2022/06/27 05:33:43;;;;;;;3.60;3.40;;;;;;;;;;5033914;28;20284;-86
2022/06/27 05:36:39;;;;;;;5.57;3.67;;;;;;;;;;5034381;28;20195;-87
2022/06/27 05:39:12;;;;;;;4.47;3.20;;;;;;;;;;5034077;28;20203;-86
2022/06/27 05:41:40;;;;;;;4.17;3.93;;;;;;;;;;5034304;28;20199;-86
2022/06/27 05:44:14;;;;;;;4.77;3.40;;;;;;;;;;5034116;28;20207;-86
2022/06/27 05:46:50;;;;;;;4.10;3.73;;;;;;;;;;5033657;28;20205;-87
2022/06/27 05:49:17;;;;;;;3.60;3.10;;;;;;;;;;5033769;28;20202;-86
2022/06/27 05:51:51;;;;;;;4.20;3.80;;;;;;;;;;5034114;28;20230;-87
2022/06/27 05:54:19;;;;;;;6.73;3.77;;;;;;;;;;5034153;28;20217;-87
2022/06/27 05:56:49;;;;;;;3.43;3.13;;;;;;;;;;5034048;28;20260;-86
2022/06/27 05:59:19;;;;;;;3.80;3.37;;;;;;;;;;5033729;28;20203;-86
2022/06/27 06:01:51;;;;;;;3.70;3.47;;;;;;;;;;5033871;28;20198;-87
2022/06/27 06:04:18;;;;;;;3.73;3.43;;;;;;;;;;5034117;28;20643;-87
2022/06/27 06:06:51;;;;;;;3.70;3.40;;;;;;;;;;5033812;28;20207;-87
2022/06/27 06:09:18;;;;;;;4.80;3.80;;;;;;;;;;5033487;28;20239;-87
2022/06/27 06:11:48;;;;;;;5.33;3.43;;;;;;;;;;5033729;28;20222;-87
2022/06/27 06:14:19;;;;;;;4.70;3.83;;;;;;;;;;5033836;28;20198;-87
2022/06/27 06:16:49;;;;;;;6.70;3.73;;;;;;;;;;5033406;28;20195;-87
2022/06/27 06:19:17;;;;;;;3.63;3.20;;;;;;;;;;5033677;28;20289;-87
2022/06/27 06:21:45;;;;;;;3.83;3.50;;;;;;;;;;5033336;28;20194;-87
2022/06/27 06:24:38;;;;;;;3.60;3.30;;;;;;;;;;5031113;28;20222;-87
2022/06/27 06:27:11;;;;;;;4.77;4.03;;;;;;;;;;5033338;28;20202;-87
2022/06/27 06:29:44;;;;;;;4.73;3.50;;;;;;;;;;5033115;28;20198;-87
2022/06/27 06:32:27;;;;;;;4.43;4.00;;;;;;;;;;5033418;28;20305;-87
2022/06/27 06:34:54;;;;;;;3.77;3.47;;;;;;;;;;5033173;28;20575;-87
2022/06/27 06:37:27;;;;;;;4.17;3.77;;;;;;;;;;5033192;28;20195;-87
2022/06/27 06:40:02;;;;;;;4.20;3.50;;;;;;;;;;5032739;28;20199;-86
2022/06/27 06:42:30;;;;;;;4.03;3.73;;;;;;;;;;5033249;28;20201;-87
2022/06/27 06:44:57;;;;;;;3.63;3.33;;;;;;;;;;5032885;28;20253;-87
2022/06/27 06:47:44;;;;;;;3.97;3.33;;;;;;;;;;5033256;28;20202;-87
2022/06/27 06:50:18;;;;;;;4.03;3.70;;;;;;;;;;5033022;28;20636;-87
2022/06/27 06:52:46;;;;;;;3.97;3.57;;;;;;;;;;5032972;28;20592;-85
2022/06/27 06:55:21;;;;;;;3.73;3.43;;;;;;;;;;5032836;28;20195;-85
2022/06/27 06:57:51;;;;;;;3.77;3.57;;;;;;;;;;5031825;28;20194;-85
2022/06/27 07:00:20;;;;;;;4.13;3.83;;;;;;;;;;5032632;28;20679;-85
2022/06/27 07:02:51;;;;;;;5.30;3.63;;;;;;;;;;5032789;28;20234;-85
2022/06/27 07:05:21;;;;;;;3.70;3.40;;;;;;;;;;5032518;28;20296;-85
2022/06/27 07:07:58;;;;;;;4.57;3.40;;;;;;;;;;5032756;28;20684;-85
2022/06/27 07:10:28;;;;;;;4.40;3.27;;;;;;;;;;5032596;28;20576;-86
2022/06/27 07:12:55;;;;;;;3.80;3.50;;;;;;;;;;5032889;28;20227;-87
2022/06/27 07:15:23;;;;;;;5.43;3.73;;;;;;;;;;5032300;28;20194;-85
2022/06/27 07:17:53;;;;;;;3.00;2.80;;;;;;;;;;5032371;28;20412;-85
2022/06/27 07:20:22;;;;;;;4.53;3.97;;;;;;;;;;5032389;28;20201;-85
2022/06/27 07:22:50;;;;;;;3.50;3.20;;;;;;;;;;5032619;28;20199;-86
2022/06/27 07:25:18;;;;;;;4.37;3.57;;;;;;;;;;5032161;28;20241;-86
2022/06/27 07:27:47;;;;;;;3.87;3.57;;;;;;;;;;5032384;28;20227;-86
2022/06/27 07:30:16;;;;;;;6.07;3.70;;;;;;;;;;5032112;28;20256;-86
2022/06/27 07:32:46;;;;;;;4.00;3.60;;;;;;;;;;5032461;28;20332;-86
2022/06/27 07:35:29;;;;;;;6.37;3.70;;;;;;;;;;5032359;28;20191;-86
2022/06/27 07:38:00;;;;;;;6.00;4.07;;;;;;;;;;5032851;28;20257;-86
2022/06/27 07:40:27;;;;;;;4.90;4.37;;;;;;;;;;5032519;28;20206;-86
2022/06/27 07:42:55;;;;;;;5.57;3.47;;;;;;;;;;5032864;28;20209;-86
2022/06/27 07:45:29;;;;;;;4.53;3.50;;;;;;;;;;5032461;28;20615;-86
2022/06/27 07:47:56;;;;;;;4.13;3.53;;;;;;;;;;5032535;28;20253;-87
2022/06/27 07:50:42;;;;;;;5.37;3.67;;;;;;;;;;5032210;28;20198;-87
2022/06/27 07:53:17;;;;;;;3.53;3.33;;;;;;;;;;5032298;28;20226;-86
2022/06/27 07:55:49;;;;;;;6.33;3.50;;;;;;;;;;5032625;28;20198;-87
2022/06/27 07:58:19;;;;;;;3.83;3.23;;;;;;;;;;5032180;28;20227;-87
2022/06/27 08:00:50;;;;;;;4.43;3.33;;;;;;;;;;5032094;28;20199;-87
2022/06/27 08:06:08;;;;;;;4.50;4.10;;;;;;;;;;5032798;28;20667;-87
2022/06/27 08:08:43;;;;;;;4.90;2.90;;;;;;;;;;5033747;28;20329;-87
2022/06/27 08:11:13;;;;;;;3.50;3.20;;;;;;;;;;5036466;28;20202;-87
2022/06/27 08:13:43;;;;;;;3.67;3.33;;;;;;;;;;5036283;28;20226;-88
2022/06/27 08:16:14;;;;;;;3.90;2.93;;;;;;;;;;5036689;28;20198;-87
2022/06/27 08:18:41;;;;;;;5.50;4.07;;;;;;;;;;5036481;28;20260;-87
2022/06/27 08:21:10;;;;;;;3.17;2.97;;;;;;;;;;5036414;28;20206;-87
2022/06/27 08:23:40;;;;;;;3.57;3.30;;;;;;;;;;5036560;28;20199;-88
2022/06/27 08:26:08;;;;;;;4.13;3.73;;;;;;;;;;5036024;28;20324;-88
2022/06/27 08:28:36;;;;;;;4.00;3.70;;;;;;;;;;5036188;28;20656;-87
2022/06/27 08:31:10;;;;;;;3.63;3.43;;;;;;;;;;5036304;28;20202;-88
2022/06/27 08:33:44;;;;;;;3.33;3.00;;;;;;;;;;5036348;28;20222;-87
2022/06/27 08:36:12;;;;;;;4.97;3.23;;;;;;;;;;5036192;28;20209;-88
2022/06/27 08:38:45;;;;;;;3.43;2.97;;;;;;;;;;5036105;28;20199;-88
2022/06/27 08:41:20;;;;;;;3.77;3.47;;;;;;;;;;5036122;28;20198;-89
2022/06/27 08:43:48;;;;;;;3.57;2.80;;;;;;;;;;5036225;28;20628;-87
2022/06/27 08:46:32;;;;;;;3.57;3.27;;;;;;;;;;5036236;28;20230;-87
2022/06/27 08:48:59;;;;;;;3.27;2.97;;;;;;;;;;5035661;28;20260;-88
2022/06/27 08:51:27;;;;;;;4.90;3.47;;;;;;;;;;5035720;28;20256;-88
2022/06/27 08:53:55;;;;;;;4.07;3.40;;;;;;;;;;5035473;28;20226;-87
2022/06/27 08:56:24;;;;;;;4.20;3.00;;;;;;;;;;5035588;28;20201;-88
2022/06/27 08:58:52;;;;;;;4.47;3.03;;;;;;;;;;5035588;28;20722;-87
2022/06/27 09:01:21;;;;;;;3.83;3.47;;;;;;;;;;5035353;28;20261;-87
2022/06/27 09:04:00;;;;;;;5.93;3.33;;;;;;;;;;5035652;28;20256;-87
2022/06/27 09:06:29;;;;;;;3.13;2.90;;;;;;;;;;5035802;28;20191;-88
2022/06/27 09:09:03;;;;;;;4.60;3.17;;;;;;;;;;5035760;28;20197;-87
2022/06/27 09:11:35;;;;;;;3.20;3.00;;;;;;;;;;5035261;28;20183;-87
2022/06/27 09:14:06;;;;;;;3.50;3.20;;;;;;;;;;5035078;28;20229;-87
2022/06/27 09:16:39;;;;;;;5.53;3.03;;;;;;;;;;5034944;28;20252;-87
2022/06/27 09:19:14;;;;;;;3.07;2.87;;;;;;;;;;5034852;28;20643;-87
2022/06/27 09:21:42;;;;;;;5.47;3.43;;;;;;;;;;5034827;28;20201;-88
2022/06/27 09:24:09;;;;;;;5.57;3.10;;;;;;;;;;5034832;28;20202;-88
2022/06/27 09:26:51;;;;;;;3.47;3.17;;;;;;;;;;5035336;28;20729;-88
2022/06/27 09:29:22;;;;;;;3.37;3.17;;;;;;;;;;5035133;28;20202;-88
2022/06/27 09:31:50;;;;;;;5.68;3.33;;;;;;;;;;5035014;28;20249;-87
2022/06/27 09:34:23;;;;;;;3.40;3.20;;;;;;;;;;5034899;28;20222;-87
2022/06/27 09:36:52;;;;;;;3.40;3.10;;;;;;;;;;5035237;28;20202;-88
2022/06/27 09:39:28;;;;;;;3.10;2.87;;;;;;;;;;5034745;28;20233;-88
2022/06/27 09:41:58;;;;;;;4.38;3.08;;;;;;;;;;5034743;28;20201;-88
2022/06/27 09:44:28;;;;;;;2.92;2.67;;;;;;;;;;5034913;28;20198;-88
2022/06/27 09:47:08;;;;;;;3.03;2.72;;;;;;;;;;5035032;28;20660;-88
2022/06/27 09:49:49;;;;;;;3.10;2.90;;;;;;;;;;5034604;28;20690;-89
2022/06/27 09:52:18;;;;;;;2.70;2.50;;;;;;;;;;5034940;28;20212;-88
2022/06/27 09:54:47;;;;;;;3.40;3.20;;;;;;;;;;5034249;28;20692;-88
2022/06/27 09:57:15;;;;;;;9.02;2.92;;;;;;;;;;5034315;28;20198;-87
2022/06/27 09:59:44;;;;;;;4.10;2.80;;;;;;;;;;5034339;28;20664;-88
2022/06/27 10:02:13;;;;;;;4.35;3.08;;;;;;;;;;5034441;28;20701;-88
2022/06/27 10:04:42;;;;;;;4.15;3.05;;;;;;;;;;5034603;28;20202;-88
2022/06/27 10:07:12;;;;;;;3.03;2.80;;;;;;;;;;5034588;28;20198;-88
2022/06/27 10:09:40;;;;;;;3.30;3.00;;;;;;;;;;5034431;28;20194;-88
2022/06/27 10:12:27;;;;;;;4.20;3.22;;;;;;;;;;5034394;28;20195;-88
2022/06/27 10:15:23;;;;;;;4.88;2.80;;;;;;;;;;5034477;28;20233;-89
2022/06/27 10:18:09;;;;;;;6.85;2.88;;;;;;;;;;5034092;28;20279;-89
2022/06/27 10:20:47;;;;;;;2.85;2.65;;;;;;;;;;5034333;28;20182;-89
2022/06/27 10:23:32;;;;;;;4.97;3.00;;;;;;;;;;5034027;28;20269;-89
2022/06/27 10:26:41;;;;;;;4.13;2.80;;;;;;;;;;5034016;28;20245;-88
2022/06/27 10:29:33;;;;;;;2.88;2.67;;;;;;;;;;5033991;28;20229;-88
2022/06/27 10:32:02;;;;;;;3.03;2.72;;;;;;;;;;5033711;28;20747;-89
2022/06/27 10:35:15;;;;;;;2.78;2.58;;;;;;;;;;5034094;28;20313;-88
2022/06/27 10:37:44;;;;;;;3.30;3.10;;;;;;;;;;5034316;28;20679;-88
2022/06/27 10:43:45;;;;;;;5.25;3.42;;;;;;;;;;5031819;28;20190;-89
2022/06/27 10:46:55;;;;;;;3.40;3.10;;;;;;;;;;5034050;28;20567;-89
2022/06/27 10:49:27;;;;;;;3.28;3.08;;;;;;;;;;5033700;28;20675;-88
2022/06/27 10:52:34;;;;;;;3.28;2.97;;;;;;;;;;5033754;28;20276;-89
2022/06/27 10:55:02;;;;;;;3.00;2.80;;;;;;;;;;5033567;28;20280;-88
2022/06/27 10:57:44;;;;;;;3.20;2.92;;;;;;;;;;5033418;28;20202;-88
2022/06/27 11:00:48;;;;;;;4.15;3.20;;;;;;;;;;5033744;28;20205;-89
2022/06/27 11:03:24;;;;;;;3.55;3.30;;;;;;;;;;5033610;28;20206;-88
2022/06/27 11:06:00;;;;;;;3.58;2.85;;;;;;;;;;5033600;28;20187;-89
2022/06/27 11:08:33;;;;;;;4.90;2.85;;;;;;;;;;5033291;28;20191;-88
2022/06/27 11:11:01;;;;;;;2.88;2.65;;;;;;;;;;5033490;28;20199;-88
2022/06/27 11:13:40;;;;;;;4.20;2.67;;;;;;;;;;5033117;28;20222;-88
2022/06/27 11:16:25;;;;;;;3.90;2.88;;;;;;;;;;5033183;28;20293;-88
2022/06/27 11:18:56;;;;;;;3.33;2.92;;;;;;;;;;5033331;28;20199;-89
2022/06/27 11:21:26;;;;;;;3.10;2.45;;;;;;;;;;5033364;28;20182;-89
2022/06/27 11:23:56;;;;;;;3.38;3.08;;;;;;;;;;5032776;28;20195;-89
2022/06/27 11:26:25;;;;;;;4.13;2.88;;;;;;;;;;5033111;28;20202;-89
2022/06/27 11:31:59;;;;;;;3.28;2.72;;;;;;;;;;5033162;28;20197;-88
2022/06/27 11:34:38;;;;;;;3.33;2.47;;;;;;;;;;5033003;28;20207;-88
2022/06/27 11:37:13;;;;;;;3.95;2.58;;;;;;;;;;5032971;28;20194;-89
2022/06/27 11:39:40;;;;;;;3.17;2.88;;;;;;;;;;5033076;28;20286;-88
2022/06/27 11:42:14;;;;;;;3.00;2.80;;;;;;;;;;5032525;28;20207;-88
2022/06/27 11:45:03;;;;;;;2.95;2.75;;;;;;;;;;5032333;28;20340;-90
2022/06/27 11:47:41;;;;;;;3.38;3.10;;;;;;;;;;5032001;28;20194;-89
2022/06/27 11:50:14;;;;;;;2.80;2.58;;;;;;;;;;5032980;28;20206;-89
2022/06/27 11:52:45;;;;;;;3.00;2.80;;;;;;;;;;5033019;28;20660;-89
2022/06/27 11:55:13;;;;;;;2.67;2.47;;;;;;;;;;5032756;28;20207;-90
2022/06/27 11:57:45;;;;;;;3.45;3.20;;;;;;;;;;5032796;28;20698;-89
2022/06/27 12:00:20;;;;;;;3.13;2.88;;;;;;;;;;5033164;28;20662;-90
2022/06/27 12:03:08;;;;;;;3.72;3.00;;;;;;;;;;5032929;28;20285;-90
2022/06/27 12:05:38;;;;;;;3.33;3.03;;;;;;;;;;5032477;28;20293;-89
2022/06/27 12:08:10;;;;;;;3.17;2.70;;;;;;;;;;5032462;28;20245;-90
2022/06/27 12:10:46;;;;;;;4.13;3.17;;;;;;;;;;5032543;28;20202;-90
2022/06/27 12:13:15;;;;;;;4.90;3.13;;;;;;;;;;5032896;28;20194;-89
2022/06/27 12:15:44;;;;;;;2.80;2.60;;;;;;;;;;5032812;28;20256;-90
2022/06/27 12:18:12;;;;;;;3.05;2.85;;;;;;;;;;5032840;28;20194;-89
2022/06/27 12:20:43;;;;;;;3.03;2.75;;;;;;;;;;5032390;28;20221;-89
2022/06/27 12:23:13;;;;;;;3.00;2.80;;;;;;;;;;5032666;28;20206;-90
2022/06/27 12:25:43;;;;;;;3.08;2.40;;;;;;;;;;5031738;28;20230;-90
2022/06/27 12:28:10;;;;;;;3.42;2.70;;;;;;;;;;5032855;28;20695;-89
2022/06/27 12:30:37;;;;;;;7.90;5.30;;;;;;;;;;5032610;28;20202;-90
2022/06/27 12:33:26;;;;;;;3.83;3.50;;;;;;;;;;5032470;28;20203;-90
2022/06/27 12:35:55;;;;;;;4.18;2.70;;;;;;;;;;5032597;28;20213;-89
2022/06/27 12:38:25;;;;;;;3.50;3.28;;;;;;;;;;5032390;28;20199;-90
2022/06/27 12:41:11;;;;;;;3.28;3.05;;;;;;;;;;5032625;28;20199;-91
2022/06/27 12:43:45;;;;;;;3.38;3.08;;;;;;;;;;5032618;28;20587;-89
2022/06/27 12:46:14;;;;;;;2.90;2.70;;;;;;;;;;5032222;28;20201;-91
2022/06/27 12:48:42;;;;;;;2.88;2.67;;;;;;;;;;5032454;28;20586;-90
2022/06/27 12:51:11;;;;;;;2.80;2.53;;;;;;;;;;5032271;28;20203;-90
2022/06/27 12:53:47;;;;;;;3.17;2.97;;;;;;;;;;5032404;28;20209;-89
2022/06/27 12:56:17;;;;;;;3.40;3.10;;;;;;;;;;5035962;28;20194;-91
2022/06/27 12:58:47;;;;;;;6.45;3.28;;;;;;;;;;5035979;28;20197;-89
2022/06/27 13:01:18;;;;;;;3.95;3.17;;;;;;;;;;5035866;28;20203;-89
2022/06/27 13:03:54;;;;;;;3.08;2.80;;;;;;;;;;5036253;28;20215;-89
2022/06/27 13:06:23;;;;;;;4.05;3.25;;;;;;;;;;5035836;28;20218;-89
2022/06/27 13:08:53;;;;;;;2.80;2.60;;;;;;;;;;5035820;28;20560;-89
2022/06/27 13:11:23;;;;;;;2.65;2.45;;;;;;;;;;5036282;28;20206;-88
2022/06/27 13:13:50;;;;;;;3.50;3.20;;;;;;;;;;5035497;28;20202;-89
2022/06/27 13:16:20;;;;;;;2.88;2.67;;;;;;;;;;5035730;28;20226;-89
2022/06/27 13:18:48;;;;;;;2.85;2.65;;;;;;;;;;5035610;28;20191;-88
2022/06/27 13:21:22;;;;;;;3.67;2.65;;;;;;;;;;5035593;28;20206;-89
2022/06/27 13:23:52;;;;;;;2.42;2.33;;;;;;;;;;5035501;28;20582;-89
2022/06/27 13:26:19;;;;;;;4.00;2.83;;;;;;;;;;5035178;28;20226;-89
2022/06/27 13:28:47;;;;;;;2.47;2.38;;;;;;;;;;5035526;28;20202;-89
2022/06/27 13:31:17;;;;;;;3.03;2.72;;;;;;;;;;5035189;28;20190;-89
2022/06/27 13:33:53;;;;;;;2.50;2.30;;;;;;;;;;5035446;28;20199;-89
2022/06/27 13:36:20;;;;;;;2.67;2.45;;;;;;;;;;5035699;28;20252;-89
2022/06/27 13:38:55;;;;;;;2.28;2.17;;;;;;;;;;5035222;28;20187;-88
2022/06/27 13:41:28;;;;;;;3.00;2.63;;;;;;;;;;5034874;28;20202;-89
2022/06/27 13:43:55;;;;;;;3.55;2.80;;;;;;;;;;5035075;28;20195;-89
2022/06/27 13:46:29;;;;;;;2.42;2.22;;;;;;;;;;5035266;28;20199;-90
2022/06/27 13:48:56;;;;;;;2.95;2.75;;;;;;;;;;5035283;28;20199;-89
2022/06/27 13:51:35;;;;;;;2.78;2.58;;;;;;;;;;5035046;28;20270;-90
2022/06/27 13:54:13;;;;;;;3.47;2.45;;;;;;;;;;5034864;28;20190;-90
2022/06/27 13:56:44;;;;;;;2.92;2.72;;;;;;;;;;5034753;28;20194;-90
2022/06/27 13:59:13;;;;;;;8.25;2.83;;;;;;;;;;5034700;28;20198;-89
2022/06/27 14:01:44;;;;;;;2.80;2.50;;;;;;;;;;5034582;28;20225;-89
2022/06/27 14:04:20;;;;;;;2.58;2.45;;;;;;;;;;5034776;28;20207;-89
2022/06/27 14:09:33;;;;;;;3.75;2.47;;;;;;;;;;5034771;28;20189;-89
2022/06/27 14:12:00;;;;;;;2.88;2.67;;;;;;;;;;5034467;28;20198;-89
2022/06/27 14:14:34;;;;;;;3.20;2.88;;;;;;;;;;5034191;28;20222;-89
2022/06/27 14:17:01;;;;;;;2.60;2.40;;;;;;;;;;5034557;28;20222;-88
2022/06/27 14:19:28;;;;;;;3.30;3.00;;;;;;;;;;5034123;28;20202;-90
2022/06/27 14:21:56;;;;;;;2.25;2.13;;;;;;;;;;5034741;28;20194;-90
2022/06/27 14:25:03;;;;;;;3.95;2.45;;;;;;;;;;5034062;28;20801;-89
2022/06/27 14:27:35;;;;;;;2.38;2.28;;;;;;;;;;5034285;28;20199;-89
2022/06/27 14:30:04;;;;;;;4.55;2.97;;;;;;;;;;5034426;28;20209;-89
2022/06/27 14:32:34;;;;;;;2.58;2.38;;;;;;;;;;5034921;28;20206;-89
2022/06/27 14:35:01;;;;;;;2.72;2.53;;;;;;;;;;5034022;28;20285;-89
2022/06/27 14:37:29;;;;;;;2.67;2.47;;;;;;;;;;5034361;28;20257;-89
2022/06/27 14:39:59;;;;;;;3.53;2.90;;;;;;;;;;5033893;28;20191;-89
2022/06/27 14:42:30;;;;;;;2.53;2.33;;;;;;;;;;5034039;28;20195;-89
2022/06/27 14:44:58;;;;;;;3.08;2.25;;;;;;;;;;5034194;28;20640;-89
2022/06/27 14:47:25;;;;;;;3.35;2.88;;;;;;;;;;5034059;28;20617;-89
2022/06/27 14:49:53;;;;;;;2.47;2.30;;;;;;;;;;5034208;28;20198;-89
2022/06/27 14:52:25;;;;;;;3.30;3.10;;;;;;;;;;5033831;28;20229;-90
2022/06/27 14:54:55;;;;;;;2.60;2.40;;;;;;;;;;5033618;28;20457;-89
2022/06/27 14:57:22;;;;;;;3.67;2.83;;;;;;;;;;5034163;28;20701;-89
2022/06/27 14:59:55;;;;;;;3.17;2.83;;;;;;;;;;5033440;28;20194;-89
2022/06/27 15:02:24;;;;;;;2.50;2.40;;;;;;;;;;5033737;28;20203;-90
2022/06/27 15:04:53;;;;;;;3.67;2.58;;;;;;;;;;5033952;28;20191;-89
2022/06/27 15:07:39;;;;;;;2.58;2.38;;;;;;;;;;5033442;28;20212;-90
2022/06/27 15:10:10;;;;;;;2.97;2.78;;;;;;;;;;5033572;28;20199;-89
2022/06/27 15:12:52;;;;;;;3.00;2.75;;;;;;;;;;5033757;28;20201;-90
2022/06/27 15:15:25;;;;;;;3.25;3.03;;;;;;;;;;5033156;28;20297;-89
2022/06/27 15:17:55;;;;;;;2.85;2.60;;;;;;;;;;5032555;28;20194;-89
2022/06/27 15:20:22;;;;;;;4.05;2.95;;;;;;;;;;5033254;28;20210;-89
2022/06/27 15:23:04;;;;;;;2.78;2.58;;;;;;;;;;5033454;28;20206;-89
2022/06/27 15:25:49;;;;;;;4.40;2.80;;;;;;;;;;5032487;28;20716;-89